sensor_id;sensor_type;location;lat;lon;timestamp;P1;durP1;ratioP1;P2;durP2;ratioP2
47772;SDS011;33534;51.028;13.716;2023-02-03T00:00:50;14.05;;;7.75;;
47772;SDS011;33534;51.028;13.716;2023-02-03T00:03:16;13.90;;;6.97;;
47772;SDS011;33534;51.028;13.716;2023-02-03T00:05:42;14.77;;;7.63;;
47772;SDS011;33534;51.028;13.716;2023-02-03T00:08:08;24.27;;;8.68;;
47772;SDS011;33534;51.028;13.716;2023-02-03T00:10:35;12.55;;;7.35;;
47772;SDS011;33534;51.028;13.716;2023-02-03T00:13:01;14.38;;;6.30;;
47772;SDS011;33534;51.028;13.716;2023-02-03T00:15:27;19.38;;;7.50;;
47772;SDS011;33534;51.028;13.716;2023-02-03T00:17:54;17.38;;;7.00;;
47772;SDS011;33534;51.028;13.716;2023-02-03T00:20:20;13.25;;;6.95;;
47772;SDS011;33534;51.028;13.716;2023-02-03T00:22:46;15.65;;;6.72;;
47772;SDS011;33534;51.028;13.716;2023-02-03T00:25:12;15.88;;;6.47;;
47772;SDS011;33534;51.028;13.716;2023-02-03T00:27:38;16.15;;;6.38;;
47772;SDS011;33534;51.028;13.716;2023-02-03T00:30:04;14.57;;;5.95;;
47772;SDS011;33534;51.028;13.716;2023-02-03T00:32:36;13.85;;;5.68;;
47772;SDS011;33534;51.028;13.716;2023-02-03T00:35:02;16.27;;;5.68;;
47772;SDS011;33534;51.028;13.716;2023-02-03T00:37:28;18.85;;;5.22;;
47772;SDS011;33534;51.028;13.716;2023-02-03T00:39:54;12.43;;;5.35;;
47772;SDS011;33534;51.028;13.716;2023-02-03T00:42:20;17.10;;;5.43;;
47772;SDS011;33534;51.028;13.716;2023-02-03T00:44:46;16.27;;;5.53;;
47772;SDS011;33534;51.028;13.716;2023-02-03T00:47:12;14.20;;;4.97;;
47772;SDS011;33534;51.028;13.716;2023-02-03T00:49:38;15.38;;;4.95;;
47772;SDS011;33534;51.028;13.716;2023-02-03T00:52:04;10.38;;;4.82;;
47772;SDS011;33534;51.028;13.716;2023-02-03T00:54:30;19.10;;;5.30;;
47772;SDS011;33534;51.028;13.716;2023-02-03T00:56:56;15.40;;;5.32;;
47772;SDS011;33534;51.028;13.716;2023-02-03T00:59:22;19.08;;;5.35;;
47772;SDS011;33534;51.028;13.716;2023-02-03T01:01:48;12.10;;;4.43;;
47772;SDS011;33534;51.028;13.716;2023-02-03T01:04:15;16.95;;;4.72;;
47772;SDS011;33534;51.028;13.716;2023-02-03T01:06:41;19.33;;;7.07;;
47772;SDS011;33534;51.028;13.716;2023-02-03T01:09:07;30.08;;;8.35;;
47772;SDS011;33534;51.028;13.716;2023-02-03T01:11:33;20.98;;;6.30;;
47772;SDS011;33534;51.028;13.716;2023-02-03T01:13:59;18.80;;;6.07;;
47772;SDS011;33534;51.028;13.716;2023-02-03T01:16:26;24.52;;;6.45;;
47772;SDS011;33534;51.028;13.716;2023-02-03T01:18:53;18.55;;;5.90;;
47772;SDS011;33534;51.028;13.716;2023-02-03T01:21:20;14.80;;;4.60;;
47772;SDS011;33534;51.028;13.716;2023-02-03T01:23:48;15.25;;;4.78;;
47772;SDS011;33534;51.028;13.716;2023-02-03T01:26:15;18.13;;;5.68;;
47772;SDS011;33534;51.028;13.716;2023-02-03T01:28:41;14.88;;;6.45;;
47772;SDS011;33534;51.028;13.716;2023-02-03T01:31:14;16.38;;;6.53;;
47772;SDS011;33534;51.028;13.716;2023-02-03T01:33:41;15.07;;;5.13;;
47772;SDS011;33534;51.028;13.716;2023-02-03T01:36:10;15.52;;;3.78;;
47772;SDS011;33534;51.028;13.716;2023-02-03T01:38:37;17.95;;;5.28;;
47772;SDS011;33534;51.028;13.716;2023-02-03T01:41:03;12.68;;;4.25;;
47772;SDS011;33534;51.028;13.716;2023-02-03T01:43:35;13.85;;;4.07;;
47772;SDS011;33534;51.028;13.716;2023-02-03T01:46:02;8.45;;;3.08;;
47772;SDS011;33534;51.028;13.716;2023-02-03T01:48:30;10.98;;;4.00;;
47772;SDS011;33534;51.028;13.716;2023-02-03T01:50:57;9.38;;;3.20;;
47772;SDS011;33534;51.028;13.716;2023-02-03T01:53:25;14.02;;;3.33;;
47772;SDS011;33534;51.028;13.716;2023-02-03T01:55:51;14.18;;;3.42;;
47772;SDS011;33534;51.028;13.716;2023-02-03T01:58:19;11.88;;;3.97;;
47772;SDS011;33534;51.028;13.716;2023-02-03T02:00:46;9.70;;;3.38;;
47772;SDS011;33534;51.028;13.716;2023-02-03T02:03:12;11.93;;;3.50;;
47772;SDS011;33534;51.028;13.716;2023-02-03T02:05:45;14.30;;;4.20;;
47772;SDS011;33534;51.028;13.716;2023-02-03T02:08:13;12.65;;;3.05;;
47772;SDS011;33534;51.028;13.716;2023-02-03T02:10:42;16.77;;;3.90;;
47772;SDS011;33534;51.028;13.716;2023-02-03T02:13:08;10.98;;;3.50;;
47772;SDS011;33534;51.028;13.716;2023-02-03T02:15:53;9.80;;;3.42;;
47772;SDS011;33534;51.028;13.716;2023-02-03T02:18:34;14.85;;;4.38;;
47772;SDS011;33534;51.028;13.716;2023-02-03T02:34:09;15.50;;;3.75;;
47772;SDS011;33534;51.028;13.716;2023-02-03T02:36:42;6.97;;;3.75;;
47772;SDS011;33534;51.028;13.716;2023-02-03T02:41:43;7.00;;;3.70;;
47772;SDS011;33534;51.028;13.716;2023-02-03T02:44:20;11.85;;;4.47;;
47772;SDS011;33534;51.028;13.716;2023-02-03T02:46:49;6.50;;;3.25;;
47772;SDS011;33534;51.028;13.716;2023-02-03T02:51:48;8.90;;;4.05;;
47772;SDS011;33534;51.028;13.716;2023-02-03T02:54:16;9.15;;;4.07;;
47772;SDS011;33534;51.028;13.716;2023-02-03T02:56:44;13.38;;;3.80;;
47772;SDS011;33534;51.028;13.716;2023-02-03T02:59:11;11.77;;;5.05;;
47772;SDS011;33534;51.028;13.716;2023-02-03T03:01:39;9.02;;;4.57;;
47772;SDS011;33534;51.028;13.716;2023-02-03T03:04:05;14.90;;;5.07;;
47772;SDS011;33534;51.028;13.716;2023-02-03T03:06:56;8.82;;;5.03;;
47772;SDS011;33534;51.028;13.716;2023-02-03T03:09:23;8.75;;;5.43;;
47772;SDS011;33534;51.028;13.716;2023-02-03T03:11:53;10.57;;;5.00;;
47772;SDS011;33534;51.028;13.716;2023-02-03T03:14:19;8.52;;;4.70;;
47772;SDS011;33534;51.028;13.716;2023-02-03T03:16:52;7.55;;;5.22;;
47772;SDS011;33534;51.028;13.716;2023-02-03T03:19:20;10.25;;;5.05;;
47772;SDS011;33534;51.028;13.716;2023-02-03T03:21:54;9.25;;;4.95;;
47772;SDS011;33534;51.028;13.716;2023-02-03T03:24:32;12.43;;;6.10;;
47772;SDS011;33534;51.028;13.716;2023-02-03T03:27:22;7.80;;;5.35;;
47772;SDS011;33534;51.028;13.716;2023-02-03T03:29:50;10.85;;;6.53;;
47772;SDS011;33534;51.028;13.716;2023-02-03T03:32:17;8.80;;;5.60;;
47772;SDS011;33534;51.028;13.716;2023-02-03T03:34:44;10.05;;;6.30;;
47772;SDS011;33534;51.028;13.716;2023-02-03T03:37:11;7.63;;;5.78;;
47772;SDS011;33534;51.028;13.716;2023-02-03T03:44:33;10.05;;;6.43;;
47772;SDS011;33534;51.028;13.716;2023-02-03T03:47:19;9.90;;;7.07;;
47772;SDS011;33534;51.028;13.716;2023-02-03T03:49:46;12.30;;;7.95;;
47772;SDS011;33534;51.028;13.716;2023-02-03T03:52:14;10.95;;;6.65;;
47772;SDS011;33534;51.028;13.716;2023-02-03T03:54:41;12.15;;;7.72;;
47772;SDS011;33534;51.028;13.716;2023-02-03T03:57:12;12.52;;;7.53;;
47772;SDS011;33534;51.028;13.716;2023-02-03T03:59:40;10.70;;;8.18;;
47772;SDS011;33534;51.028;13.716;2023-02-03T04:02:06;13.02;;;8.43;;
47772;SDS011;33534;51.028;13.716;2023-02-03T04:04:33;11.15;;;8.25;;
47772;SDS011;33534;51.028;13.716;2023-02-03T04:07:00;14.02;;;8.27;;
47772;SDS011;33534;51.028;13.716;2023-02-03T04:09:26;12.70;;;8.80;;
47772;SDS011;33534;51.028;13.716;2023-02-03T04:11:52;12.93;;;8.68;;
47772;SDS011;33534;51.028;13.716;2023-02-03T04:14:27;10.93;;;7.57;;
47772;SDS011;33534;51.028;13.716;2023-02-03T04:16:54;12.85;;;7.75;;
47772;SDS011;33534;51.028;13.716;2023-02-03T04:19:20;10.40;;;7.07;;
47772;SDS011;33534;51.028;13.716;2023-02-03T04:21:46;9.60;;;7.22;;
47772;SDS011;33534;51.028;13.716;2023-02-03T04:24:12;8.65;;;6.25;;
47772;SDS011;33534;51.028;13.716;2023-02-03T04:26:38;16.27;;;6.75;;
47772;SDS011;33534;51.028;13.716;2023-02-03T04:29:05;9.15;;;7.07;;
47772;SDS011;33534;51.028;13.716;2023-02-03T04:31:31;8.30;;;6.57;;
47772;SDS011;33534;51.028;13.716;2023-02-03T04:33:57;8.63;;;5.97;;
47772;SDS011;33534;51.028;13.716;2023-02-03T04:36:23;8.73;;;6.80;;
47772;SDS011;33534;51.028;13.716;2023-02-03T04:38:49;9.73;;;7.05;;
47772;SDS011;33534;51.028;13.716;2023-02-03T04:41:15;9.52;;;7.20;;
47772;SDS011;33534;51.028;13.716;2023-02-03T04:43:42;8.63;;;6.70;;
47772;SDS011;33534;51.028;13.716;2023-02-03T04:46:08;12.77;;;8.20;;
47772;SDS011;33534;51.028;13.716;2023-02-03T04:48:34;9.68;;;7.70;;
47772;SDS011;33534;51.028;13.716;2023-02-03T04:51:01;12.95;;;9.10;;
47772;SDS011;33534;51.028;13.716;2023-02-03T04:53:27;11.77;;;8.57;;
47772;SDS011;33534;51.028;13.716;2023-02-03T04:55:53;10.27;;;8.73;;
47772;SDS011;33534;51.028;13.716;2023-02-03T04:58:19;11.35;;;8.90;;
47772;SDS011;33534;51.028;13.716;2023-02-03T05:00:45;12.38;;;9.23;;
47772;SDS011;33534;51.028;13.716;2023-02-03T05:03:11;15.35;;;8.82;;
47772;SDS011;33534;51.028;13.716;2023-02-03T05:05:37;12.85;;;9.00;;
47772;SDS011;33534;51.028;13.716;2023-02-03T05:08:03;12.10;;;8.30;;
47772;SDS011;33534;51.028;13.716;2023-02-03T05:10:30;12.50;;;8.40;;
47772;SDS011;33534;51.028;13.716;2023-02-03T05:12:56;11.88;;;8.85;;
47772;SDS011;33534;51.028;13.716;2023-02-03T05:15:22;15.38;;;9.55;;
47772;SDS011;33534;51.028;13.716;2023-02-03T05:17:50;12.32;;;8.77;;
47772;SDS011;33534;51.028;13.716;2023-02-03T05:20:16;11.70;;;9.50;;
47772;SDS011;33534;51.028;13.716;2023-02-03T05:22:42;14.25;;;10.13;;
47772;SDS011;33534;51.028;13.716;2023-02-03T05:25:08;13.98;;;9.95;;
47772;SDS011;33534;51.028;13.716;2023-02-03T05:27:36;14.18;;;10.18;;
47772;SDS011;33534;51.028;13.716;2023-02-03T05:30:02;13.50;;;9.57;;
47772;SDS011;33534;51.028;13.716;2023-02-03T05:32:28;15.50;;;10.07;;
47772;SDS011;33534;51.028;13.716;2023-02-03T05:34:54;13.15;;;9.80;;
47772;SDS011;33534;51.028;13.716;2023-02-03T05:37:20;15.48;;;9.27;;
47772;SDS011;33534;51.028;13.716;2023-02-03T05:39:46;13.82;;;9.85;;
47772;SDS011;33534;51.028;13.716;2023-02-03T05:42:12;16.65;;;10.35;;
47772;SDS011;33534;51.028;13.716;2023-02-03T05:44:38;15.45;;;11.50;;
47772;SDS011;33534;51.028;13.716;2023-02-03T05:47:05;17.52;;;10.82;;
47772;SDS011;33534;51.028;13.716;2023-02-03T05:49:31;14.00;;;10.57;;
47772;SDS011;33534;51.028;13.716;2023-02-03T05:51:57;14.68;;;10.70;;
47772;SDS011;33534;51.028;13.716;2023-02-03T05:54:23;17.75;;;11.85;;
47772;SDS011;33534;51.028;13.716;2023-02-03T05:56:49;14.07;;;10.40;;
47772;SDS011;33534;51.028;13.716;2023-02-03T05:59:15;17.83;;;12.02;;
47772;SDS011;33534;51.028;13.716;2023-02-03T06:01:41;13.27;;;10.40;;
47772;SDS011;33534;51.028;13.716;2023-02-03T06:04:07;13.73;;;10.05;;
47772;SDS011;33534;51.028;13.716;2023-02-03T06:06:33;14.95;;;10.02;;
47772;SDS011;33534;51.028;13.716;2023-02-03T06:09:00;12.70;;;10.05;;
47772;SDS011;33534;51.028;13.716;2023-02-03T06:11:27;13.85;;;9.70;;
47772;SDS011;33534;51.028;13.716;2023-02-03T06:13:53;15.18;;;10.65;;
47772;SDS011;33534;51.028;13.716;2023-02-03T06:16:20;13.63;;;9.77;;
47772;SDS011;33534;51.028;13.716;2023-02-03T06:18:48;13.82;;;9.95;;
47772;SDS011;33534;51.028;13.716;2023-02-03T06:21:14;13.63;;;10.20;;
47772;SDS011;33534;51.028;13.716;2023-02-03T06:23:40;12.63;;;9.98;;
47772;SDS011;33534;51.028;13.716;2023-02-03T06:26:06;11.63;;;9.18;;
47772;SDS011;33534;51.028;13.716;2023-02-03T06:28:32;12.80;;;9.18;;
47772;SDS011;33534;51.028;13.716;2023-02-03T06:30:58;11.70;;;7.90;;
47772;SDS011;33534;51.028;13.716;2023-02-03T06:33:24;14.95;;;8.70;;
47772;SDS011;33534;51.028;13.716;2023-02-03T06:35:50;12.27;;;8.50;;
47772;SDS011;33534;51.028;13.716;2023-02-03T06:38:16;10.57;;;8.20;;
47772;SDS011;33534;51.028;13.716;2023-02-03T06:40:44;9.95;;;7.55;;
47772;SDS011;33534;51.028;13.716;2023-02-03T06:43:10;9.77;;;8.07;;
47772;SDS011;33534;51.028;13.716;2023-02-03T06:45:36;11.38;;;7.88;;
47772;SDS011;33534;51.028;13.716;2023-02-03T06:48:02;13.88;;;8.90;;
47772;SDS011;33534;51.028;13.716;2023-02-03T06:50:29;13.38;;;9.55;;
47772;SDS011;33534;51.028;13.716;2023-02-03T06:52:55;14.18;;;9.65;;
47772;SDS011;33534;51.028;13.716;2023-02-03T06:55:21;13.02;;;9.38;;
47772;SDS011;33534;51.028;13.716;2023-02-03T06:57:47;12.95;;;8.48;;
47772;SDS011;33534;51.028;13.716;2023-02-03T07:00:14;10.80;;;8.45;;
47772;SDS011;33534;51.028;13.716;2023-02-03T07:02:41;15.50;;;9.40;;
47772;SDS011;33534;51.028;13.716;2023-02-03T07:05:07;12.88;;;8.35;;
47772;SDS011;33534;51.028;13.716;2023-02-03T07:07:33;11.50;;;8.50;;
47772;SDS011;33534;51.028;13.716;2023-02-03T07:10:00;13.32;;;9.02;;
47772;SDS011;33534;51.028;13.716;2023-02-03T07:12:26;12.60;;;9.23;;
47772;SDS011;33534;51.028;13.716;2023-02-03T07:14:52;12.38;;;8.15;;
47772;SDS011;33534;51.028;13.716;2023-02-03T07:17:18;12.50;;;8.57;;
47772;SDS011;33534;51.028;13.716;2023-02-03T07:19:44;11.68;;;8.00;;
47772;SDS011;33534;51.028;13.716;2023-02-03T07:22:10;10.40;;;8.48;;
47772;SDS011;33534;51.028;13.716;2023-02-03T07:24:36;11.02;;;6.85;;
47772;SDS011;33534;51.028;13.716;2023-02-03T07:27:02;11.95;;;7.38;;
47772;SDS011;33534;51.028;13.716;2023-02-03T07:29:28;8.80;;;6.78;;
47772;SDS011;33534;51.028;13.716;2023-02-03T07:31:54;8.60;;;6.60;;
47772;SDS011;33534;51.028;13.716;2023-02-03T07:34:21;11.15;;;6.68;;
47772;SDS011;33534;51.028;13.716;2023-02-03T07:36:47;8.18;;;6.22;;
47772;SDS011;33534;51.028;13.716;2023-02-03T07:39:13;8.38;;;6.38;;
47772;SDS011;33534;51.028;13.716;2023-02-03T07:41:39;11.65;;;7.20;;
47772;SDS011;33534;51.028;13.716;2023-02-03T07:44:05;9.70;;;5.93;;
47772;SDS011;33534;51.028;13.716;2023-02-03T07:46:31;10.30;;;5.78;;
47772;SDS011;33534;51.028;13.716;2023-02-03T07:48:57;10.20;;;5.50;;
47772;SDS011;33534;51.028;13.716;2023-02-03T07:51:23;8.02;;;6.20;;
47772;SDS011;33534;51.028;13.716;2023-02-03T07:53:49;6.22;;;4.97;;
47772;SDS011;33534;51.028;13.716;2023-02-03T07:56:15;10.25;;;5.63;;
47772;SDS011;33534;51.028;13.716;2023-02-03T07:58:41;6.78;;;4.88;;
47772;SDS011;33534;51.028;13.716;2023-02-03T08:01:16;7.63;;;5.05;;
47772;SDS011;33534;51.028;13.716;2023-02-03T08:03:42;8.75;;;5.90;;
47772;SDS011;33534;51.028;13.716;2023-02-03T08:06:08;10.20;;;6.50;;
47772;SDS011;33534;51.028;13.716;2023-02-03T08:08:34;9.85;;;6.50;;
47772;SDS011;33534;51.028;13.716;2023-02-03T08:11:00;17.77;;;6.43;;
47772;SDS011;33534;51.028;13.716;2023-02-03T08:13:26;7.10;;;5.07;;
47772;SDS011;33534;51.028;13.716;2023-02-03T08:15:53;8.05;;;5.10;;
47772;SDS011;33534;51.028;13.716;2023-02-03T08:18:19;7.60;;;5.07;;
47772;SDS011;33534;51.028;13.716;2023-02-03T08:20:45;9.35;;;5.22;;
47772;SDS011;33534;51.028;13.716;2023-02-03T08:23:12;7.68;;;5.00;;
47772;SDS011;33534;51.028;13.716;2023-02-03T08:25:38;8.10;;;5.35;;
47772;SDS011;33534;51.028;13.716;2023-02-03T08:28:04;5.47;;;4.75;;
47772;SDS011;33534;51.028;13.716;2023-02-03T08:30:30;9.93;;;5.45;;
47772;SDS011;33534;51.028;13.716;2023-02-03T08:32:56;6.28;;;4.30;;
47772;SDS011;33534;51.028;13.716;2023-02-03T08:35:23;7.70;;;4.97;;
47772;SDS011;33534;51.028;13.716;2023-02-03T08:37:49;7.80;;;4.70;;
47772;SDS011;33534;51.028;13.716;2023-02-03T08:40:16;9.30;;;4.97;;
47772;SDS011;33534;51.028;13.716;2023-02-03T08:42:42;5.30;;;4.70;;
47772;SDS011;33534;51.028;13.716;2023-02-03T08:45:08;6.65;;;4.35;;
47772;SDS011;33534;51.028;13.716;2023-02-03T08:47:34;5.45;;;4.40;;
47772;SDS011;33534;51.028;13.716;2023-02-03T08:50:01;6.78;;;5.05;;
47772;SDS011;33534;51.028;13.716;2023-02-03T08:52:27;8.05;;;4.45;;
47772;SDS011;33534;51.028;13.716;2023-02-03T08:54:53;6.35;;;4.53;;
47772;SDS011;33534;51.028;13.716;2023-02-03T08:57:19;8.63;;;4.65;;
47772;SDS011;33534;51.028;13.716;2023-02-03T08:59:45;7.10;;;4.80;;
47772;SDS011;33534;51.028;13.716;2023-02-03T09:02:15;7.45;;;4.65;;
47772;SDS011;33534;51.028;13.716;2023-02-03T09:04:42;6.93;;;4.25;;
47772;SDS011;33534;51.028;13.716;2023-02-03T09:07:08;7.85;;;4.20;;
47772;SDS011;33534;51.028;13.716;2023-02-03T09:09:35;6.38;;;4.00;;
47772;SDS011;33534;51.028;13.716;2023-02-03T09:12:01;6.47;;;4.20;;
47772;SDS011;33534;51.028;13.716;2023-02-03T09:14:29;7.15;;;4.45;;
47772;SDS011;33534;51.028;13.716;2023-02-03T09:16:57;9.82;;;4.60;;
47772;SDS011;33534;51.028;13.716;2023-02-03T09:19:23;5.90;;;4.53;;
47772;SDS011;33534;51.028;13.716;2023-02-03T09:21:49;6.90;;;5.15;;
47772;SDS011;33534;51.028;13.716;2023-02-03T09:24:15;9.32;;;4.90;;
47772;SDS011;33534;51.028;13.716;2023-02-03T09:26:41;5.18;;;4.22;;
47772;SDS011;33534;51.028;13.716;2023-02-03T09:29:07;7.57;;;5.28;;
47772;SDS011;33534;51.028;13.716;2023-02-03T09:31:33;8.20;;;4.53;;
47772;SDS011;33534;51.028;13.716;2023-02-03T09:33:59;7.18;;;4.72;;
47772;SDS011;33534;51.028;13.716;2023-02-03T09:36:25;8.00;;;5.55;;
47772;SDS011;33534;51.028;13.716;2023-02-03T09:38:52;8.38;;;5.15;;
47772;SDS011;33534;51.028;13.716;2023-02-03T09:46:26;10.32;;;5.82;;
47772;SDS011;33534;51.028;13.716;2023-02-03T09:48:56;10.18;;;4.95;;
47772;SDS011;33534;51.028;13.716;2023-02-03T09:53:55;10.75;;;5.28;;
47772;SDS011;33534;51.028;13.716;2023-02-03T09:56:29;7.80;;;5.28;;
47772;SDS011;33534;51.028;13.716;2023-02-03T09:58:56;8.65;;;5.75;;
47772;SDS011;33534;51.028;13.716;2023-02-03T10:01:23;9.90;;;5.53;;
47772;SDS011;33534;51.028;13.716;2023-02-03T10:03:56;11.77;;;6.63;;
47772;SDS011;33534;51.028;13.716;2023-02-03T10:19:18;8.95;;;4.97;;
47772;SDS011;33534;51.028;13.716;2023-02-03T10:21:46;8.70;;;5.50;;
47772;SDS011;33534;51.028;13.716;2023-02-03T10:24:57;16.92;;;5.57;;
47772;SDS011;33534;51.028;13.716;2023-02-03T10:27:02;9.68;;;5.05;;
47772;SDS011;33534;51.028;13.716;2023-02-03T10:29:36;10.25;;;5.35;;
47772;SDS011;33534;51.028;13.716;2023-02-03T10:32:07;14.32;;;5.80;;
47772;SDS011;33534;51.028;13.716;2023-02-03T10:34:33;9.98;;;5.18;;
47772;SDS011;33534;51.028;13.716;2023-02-03T10:37:09;8.45;;;5.10;;
47772;SDS011;33534;51.028;13.716;2023-02-03T10:42:10;9.52;;;5.00;;
47772;SDS011;33534;51.028;13.716;2023-02-03T10:44:38;8.68;;;4.97;;
47772;SDS011;33534;51.028;13.716;2023-02-03T10:49:52;8.18;;;4.93;;
47772;SDS011;33534;51.028;13.716;2023-02-03T10:52:32;10.93;;;5.13;;
47772;SDS011;33534;51.028;13.716;2023-02-03T10:54:59;7.00;;;5.05;;
47772;SDS011;33534;51.028;13.716;2023-02-03T10:57:29;6.95;;;5.13;;
47772;SDS011;33534;51.028;13.716;2023-02-03T11:00:03;6.05;;;5.20;;
47772;SDS011;33534;51.028;13.716;2023-02-03T11:02:29;6.78;;;4.65;;
47772;SDS011;33534;51.028;13.716;2023-02-03T11:07:40;9.15;;;5.05;;
47772;SDS011;33534;51.028;13.716;2023-02-03T11:12:57;7.28;;;4.00;;
47772;SDS011;33534;51.028;13.716;2023-02-03T11:15:33;7.75;;;4.38;;
47772;SDS011;33534;51.028;13.716;2023-02-03T11:17:59;5.78;;;4.18;;
47772;SDS011;33534;51.028;13.716;2023-02-03T11:20:25;6.40;;;3.92;;
47772;SDS011;33534;51.028;13.716;2023-02-03T11:22:52;7.68;;;4.30;;
47772;SDS011;33534;51.028;13.716;2023-02-03T11:25:26;10.20;;;4.00;;
47772;SDS011;33534;51.028;13.716;2023-02-03T11:27:56;8.77;;;4.97;;
47772;SDS011;33534;51.028;13.716;2023-02-03T11:30:28;7.00;;;4.72;;
47772;SDS011;33534;51.028;13.716;2023-02-03T11:32:54;5.25;;;3.95;;
47772;SDS011;33534;51.028;13.716;2023-02-03T11:35:21;7.70;;;4.72;;
47772;SDS011;33534;51.028;13.716;2023-02-03T11:37:49;7.85;;;4.78;;
47772;SDS011;33534;51.028;13.716;2023-02-03T11:42:45;12.07;;;6.10;;
47772;SDS011;33534;51.028;13.716;2023-02-03T11:45:24;8.25;;;5.25;;
47772;SDS011;33534;51.028;13.716;2023-02-03T11:47:53;7.82;;;4.60;;
47772;SDS011;33534;51.028;13.716;2023-02-03T11:50:28;5.43;;;4.22;;
47772;SDS011;33534;51.028;13.716;2023-02-03T12:00:29;6.10;;;4.22;;
47772;SDS011;33534;51.028;13.716;2023-02-03T12:13:18;3.85;;;3.03;;
47772;SDS011;33534;51.028;13.716;2023-02-03T12:16:00;7.03;;;3.50;;
47772;SDS011;33534;51.028;13.716;2023-02-03T12:28:47;3.42;;;2.58;;
47772;SDS011;33534;51.028;13.716;2023-02-03T12:31:26;4.68;;;2.97;;
47772;SDS011;33534;51.028;13.716;2023-02-03T12:36:41;2.00;;;1.75;;
47772;SDS011;33534;51.028;13.716;2023-02-03T12:39:17;2.83;;;2.13;;
47772;SDS011;33534;51.028;13.716;2023-02-03T12:41:49;2.25;;;1.80;;
47772;SDS011;33534;51.028;13.716;2023-02-03T12:44:19;3.28;;;2.13;;
47772;SDS011;33534;51.028;13.716;2023-02-03T12:46:57;5.45;;;2.20;;
47772;SDS011;33534;51.028;13.716;2023-02-03T12:54:41;3.80;;;2.13;;
47772;SDS011;33534;51.028;13.716;2023-02-03T12:57:12;3.47;;;2.40;;
47772;SDS011;33534;51.028;13.716;2023-02-03T12:59:40;5.30;;;2.13;;
47772;SDS011;33534;51.028;13.716;2023-02-03T13:02:17;5.00;;;2.83;;
47772;SDS011;33534;51.028;13.716;2023-02-03T13:04:48;3.70;;;2.60;;
47772;SDS011;33534;51.028;13.716;2023-02-03T13:07:18;2.95;;;2.53;;
47772;SDS011;33534;51.028;13.716;2023-02-03T13:09:48;6.22;;;3.15;;
47772;SDS011;33534;51.028;13.716;2023-02-03T13:12:38;6.82;;;3.60;;
47772;SDS011;33534;51.028;13.716;2023-02-03T13:20:05;9.23;;;2.72;;
47772;SDS011;33534;51.028;13.716;2023-02-03T13:22:37;17.45;;;2.80;;
47772;SDS011;33534;51.028;13.716;2023-02-03T13:32:38;12.73;;;2.20;;
47772;SDS011;33534;51.028;13.716;2023-02-03T13:35:24;11.52;;;2.80;;
47772;SDS011;33534;51.028;13.716;2023-02-03T13:43:09;15.40;;;2.90;;
47772;SDS011;33534;51.028;13.716;2023-02-03T13:45:37;15.63;;;3.03;;
47772;SDS011;33534;51.028;13.716;2023-02-03T13:48:26;12.25;;;3.42;;
47772;SDS011;33534;51.028;13.716;2023-02-03T13:51:02;16.17;;;3.20;;
47772;SDS011;33534;51.028;13.716;2023-02-03T13:53:34;23.75;;;4.13;;
47772;SDS011;33534;51.028;13.716;2023-02-03T13:58:27;17.15;;;4.05;;
47772;SDS011;33534;51.028;13.716;2023-02-03T14:05:53;19.52;;;3.28;;
47772;SDS011;33534;51.028;13.716;2023-02-03T14:13:36;24.77;;;4.90;;
47772;SDS011;33534;51.028;13.716;2023-02-03T14:16:35;16.73;;;3.40;;
47772;SDS011;33534;51.028;13.716;2023-02-03T14:18:54;18.35;;;3.55;;
47772;SDS011;33534;51.028;13.716;2023-02-03T14:21:21;17.45;;;3.75;;
47772;SDS011;33534;51.028;13.716;2023-02-03T14:23:50;26.63;;;4.20;;
47772;SDS011;33534;51.028;13.716;2023-02-03T14:26:38;17.15;;;3.45;;
47772;SDS011;33534;51.028;13.716;2023-02-03T14:29:05;17.02;;;3.22;;
47772;SDS011;33534;51.028;13.716;2023-02-03T14:31:32;22.17;;;3.70;;
47772;SDS011;33534;51.028;13.716;2023-02-03T14:34:16;16.88;;;3.35;;
47772;SDS011;33534;51.028;13.716;2023-02-03T14:36:46;18.05;;;3.47;;
47772;SDS011;33534;51.028;13.716;2023-02-03T14:52:06;19.95;;;3.75;;
47772;SDS011;33534;51.028;13.716;2023-02-03T14:59:48;18.85;;;4.53;;
47772;SDS011;33534;51.028;13.716;2023-02-03T15:02:25;20.25;;;4.30;;
47772;SDS011;33534;51.028;13.716;2023-02-03T15:05:33;22.52;;;3.83;;
47772;SDS011;33534;51.028;13.716;2023-02-03T15:10:16;18.10;;;4.95;;
47772;SDS011;33534;51.028;13.716;2023-02-03T15:12:46;20.63;;;4.25;;
47772;SDS011;33534;51.028;13.716;2023-02-03T15:15:29;24.65;;;4.20;;
47772;SDS011;33534;51.028;13.716;2023-02-03T15:17:56;19.38;;;4.88;;
47772;SDS011;33534;51.028;13.716;2023-02-03T15:20:36;16.90;;;3.70;;
47772;SDS011;33534;51.028;13.716;2023-02-03T15:23:16;15.43;;;4.63;;
47772;SDS011;33534;51.028;13.716;2023-02-03T15:25:43;34.08;;;4.32;;
47772;SDS011;33534;51.028;13.716;2023-02-03T15:28:18;21.85;;;4.80;;
47772;SDS011;33534;51.028;13.716;2023-02-03T15:30:45;18.33;;;4.13;;
47772;SDS011;33534;51.028;13.716;2023-02-03T15:33:12;20.55;;;4.40;;
47772;SDS011;33534;51.028;13.716;2023-02-03T15:35:40;25.63;;;5.22;;
47772;SDS011;33534;51.028;13.716;2023-02-03T15:38:09;21.67;;;4.72;;
47772;SDS011;33534;51.028;13.716;2023-02-03T15:40:42;18.85;;;4.18;;
47772;SDS011;33534;51.028;13.716;2023-02-03T15:43:17;19.08;;;4.57;;
47772;SDS011;33534;51.028;13.716;2023-02-03T15:48:40;22.85;;;4.20;;
47772;SDS011;33534;51.028;13.716;2023-02-03T15:51:10;22.42;;;4.80;;
47772;SDS011;33534;51.028;13.716;2023-02-03T15:53:59;17.77;;;3.72;;
47772;SDS011;33534;51.028;13.716;2023-02-03T15:58:50;19.75;;;3.78;;
47772;SDS011;33534;51.028;13.716;2023-02-03T16:01:18;27.15;;;5.15;;
47772;SDS011;33534;51.028;13.716;2023-02-03T16:03:46;21.05;;;4.93;;
47772;SDS011;33534;51.028;13.716;2023-02-03T16:06:17;24.52;;;4.40;;
47772;SDS011;33534;51.028;13.716;2023-02-03T16:08:44;31.00;;;5.60;;
47772;SDS011;33534;51.028;13.716;2023-02-03T16:13:49;18.95;;;3.80;;
47772;SDS011;33534;51.028;13.716;2023-02-03T16:16:20;13.77;;;4.05;;
47772;SDS011;33534;51.028;13.716;2023-02-03T16:18:51;22.77;;;5.20;;
47772;SDS011;33534;51.028;13.716;2023-02-03T16:21:34;22.42;;;4.97;;
47772;SDS011;33534;51.028;13.716;2023-02-03T16:24:01;21.13;;;4.60;;
47772;SDS011;33534;51.028;13.716;2023-02-03T16:26:28;14.63;;;3.88;;
47772;SDS011;33534;51.028;13.716;2023-02-03T16:29:15;20.83;;;3.13;;
47772;SDS011;33534;51.028;13.716;2023-02-03T16:32:00;19.80;;;4.45;;
47772;SDS011;33534;51.028;13.716;2023-02-03T16:34:44;20.25;;;4.00;;
47772;SDS011;33534;51.028;13.716;2023-02-03T16:37:30;20.58;;;4.63;;
47772;SDS011;33534;51.028;13.716;2023-02-03T16:40:19;18.40;;;3.83;;
47772;SDS011;33534;51.028;13.716;2023-02-03T16:43:04;12.73;;;3.92;;
47772;SDS011;33534;51.028;13.716;2023-02-03T16:45:54;21.10;;;5.25;;
47772;SDS011;33534;51.028;13.716;2023-02-03T16:48:39;22.25;;;4.60;;
47772;SDS011;33534;51.028;13.716;2023-02-03T16:51:23;24.92;;;4.53;;
47772;SDS011;33534;51.028;13.716;2023-02-03T16:53:49;16.10;;;4.22;;
47772;SDS011;33534;51.028;13.716;2023-02-03T16:56:15;19.45;;;4.72;;
47772;SDS011;33534;51.028;13.716;2023-02-03T16:58:43;26.08;;;5.10;;
47772;SDS011;33534;51.028;13.716;2023-02-03T17:01:09;17.33;;;3.85;;
47772;SDS011;33534;51.028;13.716;2023-02-03T17:03:36;19.98;;;5.03;;
47772;SDS011;33534;51.028;13.716;2023-02-03T17:06:03;23.77;;;4.50;;
47772;SDS011;33534;51.028;13.716;2023-02-03T17:08:30;23.10;;;4.22;;